Time;durP1;ratioP1;P1;durP2;ratioP2;P2;SDS_P1;SDS_P2;PMS_P1;PMS_P2;Temp;Humidity;BMP_temperature;BMP_pressure;BME280_temperature;BME280_humidity;BME280_pressure;Samples;Min_cycle;Max_cycle;Signal;HPM_P1;HPM_P2
2022/06/27 00:01:51;;;;;;;8.48;5.68;;;22.70;99.90;;;;;;5109064;28;20142;-47
2022/06/27 00:04:17;;;;;;;7.35;5.32;;;22.80;99.90;;;;;;5057929;28;20040;-47
2022/06/27 00:06:43;;;;;;;6.28;5.63;;;22.90;99.90;;;;;;5092502;28;20032;-48
2022/06/27 00:09:08;;;;;;;5.85;4.93;;;23.00;99.90;;;;;;5093527;28;20028;-46
2022/06/27 00:11:34;;;;;;;5.65;4.93;;;23.10;99.90;;;;;;5093541;28;20027;-47
2022/06/27 00:14:00;;;;;;;6.72;5.15;;;23.10;99.90;;;;;;5091682;28;20036;-47
2022/06/27 00:16:26;;;;;;;6.28;4.72;;;23.10;99.90;;;;;;5091645;28;20040;-47
2022/06/27 00:18:52;;;;;;;5.13;4.50;;;23.20;99.90;;;;;;5091590;28;20139;-47
2022/06/27 00:21:18;;;;;;;5.40;4.47;;;23.20;99.90;;;;;;5093673;28;20028;-48
2022/06/27 00:23:44;;;;;;;7.78;4.18;;;23.20;99.90;;;;;;5093822;28;20040;-46
2022/06/27 00:26:10;;;;;;;6.25;4.53;;;23.30;99.90;;;;;;5093355;28;20032;-48
2022/06/27 00:28:36;;;;;;;9.57;4.60;;;23.30;99.90;;;;;;5108378;28;20090;-48
2022/06/27 00:31:01;;;;;;;6.57;4.50;;;23.40;99.90;;;;;;5093540;28;20119;-47
2022/06/27 00:33:27;;;;;;;5.57;4.78;;;23.30;99.90;;;;;;5057555;28;20125;-47
2022/06/27 00:35:53;;;;;;;5.25;4.70;;;23.30;99.90;;;;;;5093022;28;20028;-47
2022/06/27 00:38:20;;;;;;;7.38;4.97;;;23.30;99.90;;;;;;5091439;28;20090;-48
2022/06/27 00:40:46;;;;;;;7.82;4.60;;;23.30;99.90;;;;;;5093831;28;20032;-47
2022/06/27 00:43:11;;;;;;;6.18;4.85;;;23.30;99.90;;;;;;5093314;28;20130;-47
2022/06/27 00:45:37;;;;;;;4.93;4.25;;;23.20;99.90;;;;;;5091231;28;20131;-46
2022/06/27 00:48:04;;;;;;;5.68;4.05;;;23.30;99.90;;;;;;5057903;28;20044;-47
2022/06/27 00:50:29;;;;;;;8.52;4.85;;;23.10;99.90;;;;;;5093208;28;20507;-47
2022/06/27 00:52:55;;;;;;;7.18;4.50;;;23.10;99.90;;;;;;5057882;28;20055;-47
2022/06/27 00:55:21;;;;;;;8.10;4.78;;;23.20;99.90;;;;;;5091239;28;20044;-46
2022/06/27 00:57:47;;;;;;;6.78;4.97;;;23.10;99.90;;;;;;5091147;28;20039;-47
2022/06/27 01:00:14;;;;;;;5.40;4.20;;;23.20;99.90;;;;;;5093229;28;20032;-46
2022/06/27 01:02:40;;;;;;;7.80;4.63;;;23.20;99.90;;;;;;5057252;28;20036;-47
2022/06/27 01:05:06;;;;;;;7.90;5.13;;;23.20;99.90;;;;;;5093089;28;20106;-46
2022/06/27 01:07:32;;;;;;;9.13;5.00;;;23.10;99.90;;;;;;5092968;28;20119;-46
2022/06/27 01:09:59;;;;;;;6.88;5.18;;;23.00;99.90;;;;;;5093183;28;20063;-47
2022/06/27 01:12:25;;;;;;;8.15;4.65;;;22.90;99.90;;;;;;5093228;28;20024;-46
2022/06/27 01:14:51;;;;;;;8.95;4.93;;;22.90;99.90;;;;;;5057257;28;20043;-47
2022/06/27 01:17:18;;;;;;;6.82;4.90;;;22.90;99.90;;;;;;5092940;28;20035;-46
2022/06/27 01:19:43;;;;;;;7.35;4.75;;;22.90;99.90;;;;;;5057078;28;20032;-46
2022/06/27 01:22:11;;;;;;;7.68;5.05;;;22.70;99.90;;;;;;5091037;28;20044;-47
2022/06/27 01:24:37;;;;;;;5.50;4.75;;;22.50;99.90;;;;;;5092929;28;20115;-47
2022/06/27 01:27:04;;;;;;;5.80;5.07;;;22.50;99.90;;;;;;5092948;28;20036;-47
2022/06/27 01:29:31;;;;;;;6.80;5.18;;;22.50;99.90;;;;;;5092958;28;20020;-48
2022/06/27 01:31:56;;;;;;;5.60;5.00;;;22.60;99.90;;;;;;5092691;28;20024;-47
2022/06/27 01:34:23;;;;;;;6.97;5.05;;;22.60;99.90;;;;;;5056973;28;20044;-46
2022/06/27 01:36:49;;;;;;;7.30;5.07;;;22.60;99.90;;;;;;5092628;28;20035;-47
2022/06/27 01:39:20;;;;;;;5.65;5.00;;;22.60;99.90;;;;;;5107851;28;20032;-47
2022/06/27 01:41:57;;;;;;;9.10;5.15;;;22.60;99.90;;;;;;5092888;28;20111;-47
2022/06/27 01:44:25;;;;;;;5.65;5.00;;;22.60;99.90;;;;;;5092665;28;20028;-47
2022/06/27 01:47:00;;;;;;;5.32;4.82;;;22.70;99.90;;;;;;5092882;28;20444;-46
2022/06/27 01:49:28;;;;;;;5.18;4.72;;;22.60;99.90;;;;;;5095458;28;20472;-46
2022/06/27 01:51:55;;;;;;;7.32;4.85;;;22.70;99.90;;;;;;5096136;28;20028;-46
2022/06/27 01:54:23;;;;;;;6.35;4.43;;;22.70;99.90;;;;;;5094213;28;20032;-47
2022/06/27 01:56:50;;;;;;;6.38;5.53;;;22.70;99.90;;;;;;5096172;28;20028;-47
2022/06/27 01:59:17;;;;;;;9.38;6.20;;;22.30;99.90;;;;;;5111451;28;20036;-47
2022/06/27 02:01:44;;;;;;;7.18;6.10;;;22.00;99.90;;;;;;5096270;28;20608;-46
2022/06/27 02:04:12;;;;;;;10.95;6.22;;;21.70;99.90;;;;;;5095831;28;20028;-46
2022/06/27 02:06:39;;;;;;;7.32;5.97;;;21.70;99.90;;;;;;5094606;28;20541;-48
2022/06/27 02:09:05;;;;;;;8.35;7.25;;;;;;;;;;5095836;28;20024;-46
2022/06/27 02:11:32;;;;;;;6.70;5.97;;;21.40;99.90;;;;;;5095954;28;20368;-47
2022/06/27 02:13:58;;;;;;;7.18;5.78;;;21.40;99.90;;;;;;5095720;28;20031;-46
2022/06/27 02:16:24;;;;;;;9.05;6.20;;;21.50;99.90;;;;;;5096077;28;20020;-46
2022/06/27 02:18:50;;;;;;;9.27;7.32;;;21.60;99.90;;;;;;5096150;28;20034;-46
2022/06/27 02:21:21;;;;;;;9.30;6.88;;;21.70;99.90;;;;;;5093322;28;20522;-46
2022/06/27 02:23:47;;;;;;;10.80;7.20;;;21.70;99.90;;;;;;5093517;28;20483;-47
2022/06/27 02:26:14;;;;;;;8.25;7.35;;;;;;;;;;5093290;28;20143;-46
2022/06/27 02:28:41;;;;;;;8.07;6.72;;;21.20;99.90;;;;;;5093369;28;20147;-47
2022/06/27 02:31:08;;;;;;;8.18;6.57;;;20.80;99.90;;;;;;5093286;28;20131;-48
2022/06/27 02:33:40;;;;;;;10.38;7.07;;;20.90;99.90;;;;;;5093142;28;20036;-47
2022/06/27 02:36:07;;;;;;;7.10;6.05;;;20.90;99.90;;;;;;5093271;28;20114;-47
2022/06/27 02:38:34;;;;;;;8.15;6.38;;;21.20;99.90;;;;;;5059863;28;20039;-47
2022/06/27 02:41:04;;;;;;;6.45;5.63;;;21.40;99.90;;;;;;5093140;28;20039;-46
2022/06/27 02:43:34;;;;;;;10.13;6.25;;;21.60;99.90;;;;;;5093166;28;20028;-48
2022/06/27 02:46:01;;;;;;;8.30;6.50;;;21.70;99.90;;;;;;5092931;28;20071;-48
2022/06/27 02:48:30;;;;;;;9.73;5.93;;;21.80;99.90;;;;;;5092931;28;20036;-47
2022/06/27 02:50:58;;;;;;;7.60;6.00;;;21.80;99.90;;;;;;5093017;28;20028;-46
2022/06/27 02:53:29;;;;;;;7.28;6.47;;;21.80;99.90;;;;;;5094833;28;20078;-47
2022/06/27 02:55:57;;;;;;;7.07;5.88;;;21.80;99.90;;;;;;5095040;28;20074;-46
2022/06/27 02:58:51;;;;;;;7.15;5.88;;;21.90;99.90;;;;;;5094917;28;20077;-47
2022/06/27 03:01:20;;;;;;;9.20;5.90;;;22.00;99.90;;;;;;5093872;28;20028;-46
2022/06/27 03:03:48;;;;;;;13.40;6.00;;;22.00;99.90;;;;;;5094850;28;20071;-46
2022/06/27 03:06:14;;;;;;;8.77;6.28;;;22.00;99.90;;;;;;5094811;28;20055;-47
2022/06/27 03:08:45;;;;;;;9.18;5.88;;;22.00;99.90;;;;;;5095206;28;20024;-47
2022/06/27 03:11:13;;;;;;;8.70;5.55;;;22.00;99.90;;;;;;5094665;28;20031;-47
2022/06/27 03:13:39;;;;;;;6.90;6.30;;;21.90;99.90;;;;;;5094678;28;20028;-48
2022/06/27 03:16:06;;;;;;;9.95;6.20;;;21.50;99.90;;;;;;5094926;28;20371;-47
2022/06/27 03:18:32;;;;;;;10.95;6.22;;;21.00;99.90;;;;;;5094506;28;20157;-46
2022/06/27 03:20:58;;;;;;;9.68;6.20;;;20.70;99.90;;;;;;5109906;28;20086;-46
2022/06/27 03:23:24;;;;;;;8.13;6.75;;;20.70;99.90;;;;;;5094369;28;20494;-47
2022/06/27 03:25:50;;;;;;;8.77;6.50;;;20.70;99.90;;;;;;5094890;28;20067;-46
2022/06/27 03:28:16;;;;;;;10.60;7.03;;;20.90;99.90;;;;;;5094212;28;20024;-47
2022/06/27 03:30:42;;;;;;;7.78;6.72;;;21.20;99.90;;;;;;5109737;28;20398;-47
2022/06/27 03:33:08;;;;;;;10.68;7.40;;;21.30;99.90;;;;;;5094809;28;20034;-47
2022/06/27 03:35:34;;;;;;;10.77;7.43;;;21.30;99.90;;;;;;5073895;28;20124;-46
2022/06/27 03:37:59;;;;;;;8.48;7.47;;;21.20;99.90;;;;;;5074164;28;20050;-47
2022/06/27 03:40:26;;;;;;;8.82;6.90;;;21.40;99.90;;;;;;5082592;28;20391;-47
2022/06/27 03:42:51;;;;;;;8.88;7.30;;;21.30;99.90;;;;;;5071881;28;20119;-47
2022/06/27 03:45:18;;;;;;;8.25;7.40;;;20.80;99.90;;;;;;5073609;28;20611;-47
2022/06/27 03:47:53;;;;;;;11.27;7.55;;;20.80;99.90;;;;;;5077086;28;20028;-48
2022/06/27 03:50:19;;;;;;;11.13;7.20;;;21.10;99.90;;;;;;5086306;28;20089;-47
2022/06/27 03:52:46;;;;;;;9.00;6.43;;;21.30;99.90;;;;;;5073870;28;20031;-47
2022/06/27 03:55:12;;;;;;;7.57;5.47;;;21.50;99.90;;;;;;5072871;28;20395;-47
2022/06/27 03:57:45;;;;;;;9.23;6.30;;;21.60;99.90;;;;;;5085276;28;20036;-46
2022/06/27 04:00:11;;;;;;;7.50;5.75;;;21.80;99.90;;;;;;5084353;28;20051;-48
2022/06/27 04:02:37;;;;;;;9.50;6.63;;;21.90;99.90;;;;;;5055401;28;20119;-47
2022/06/27 04:05:03;;;;;;;8.02;6.00;;;21.90;99.90;;;;;;5091648;28;20111;-46
2022/06/27 04:07:29;;;;;;;11.57;6.88;;;22.10;99.90;;;;;;5047873;28;20040;-47
2022/06/27 04:09:56;;;;;;;8.45;6.32;;;22.10;99.90;;;;;;5091501;28;20024;-47
2022/06/27 04:12:22;;;;;;;13.02;6.88;;;22.20;99.90;;;;;;5077356;28;20035;-46
2022/06/27 04:14:48;;;;;;;8.35;6.57;;;22.20;99.90;;;;;;5093898;28;20039;-47
2022/06/27 04:17:14;;;;;;;10.45;7.15;;;22.30;99.90;;;;;;5084153;28;21461;-46
2022/06/27 04:19:40;;;;;;;8.25;6.95;;;22.30;99.90;;;;;;5080750;28;20101;-47
2022/06/27 04:22:05;;;;;;;8.40;6.78;;;22.30;99.90;;;;;;5075854;28;20024;-47
2022/06/27 04:24:31;;;;;;;16.75;7.70;;;22.40;99.90;;;;;;5073551;28;20020;-47
2022/06/27 04:26:57;;;;;;;11.77;7.93;;;22.40;99.90;;;;;;5083434;28;20027;-47
2022/06/27 04:29:23;;;;;;;13.40;6.82;;;22.60;99.90;;;;;;5079179;28;20044;-48
2022/06/27 04:31:49;;;;;;;9.50;7.55;;;22.70;99.90;;;;;;5082205;28;20020;-47
2022/06/27 04:34:15;;;;;;;9.73;6.78;;;22.70;99.90;;;;;;5082512;28;20044;-46
2022/06/27 04:36:41;;;;;;;11.80;8.90;;;22.80;99.90;;;;;;5073617;28;20044;-48
2022/06/27 04:39:08;;;;;;;9.77;8.07;;;22.80;99.90;;;;;;5077252;28;20028;-47
2022/06/27 04:41:34;;;;;;;9.43;7.28;;;;;;;;;;5082575;28;20043;-47
2022/06/27 04:44:00;;;;;;;9.27;7.68;;;;;;;;;;5085070;28;20032;-47
2022/06/27 04:46:27;;;;;;;11.00;7.57;;;;;;;;;;5081049;28;20095;-47
2022/06/27 04:48:53;;;;;;;8.13;7.18;;;22.90;99.90;;;;;;5073395;28;20126;-47
2022/06/27 04:51:18;;;;;;;9.35;7.93;;;22.80;99.90;;;;;;5071453;28;20479;-48
2022/06/27 04:53:44;;;;;;;9.52;7.43;;;22.80;99.90;;;;;;5054446;28;20101;-47
2022/06/27 04:56:11;;;;;;;11.57;8.60;;;22.90;99.90;;;;;;5073220;28;20162;-46
2022/06/27 04:58:37;;;;;;;8.77;7.95;;;23.00;99.90;;;;;;5093031;28;20467;-47
2022/06/27 05:01:04;;;;;;;8.63;7.60;;;;;;;;;;5093334;28;20024;-47
2022/06/27 05:03:30;;;;;;;11.80;7.40;;;;;;;;;;5093301;28;20028;-46
2022/06/27 05:05:56;;;;;;;8.77;7.47;;;23.70;99.90;;;;;;5093448;28;21013;-47
2022/06/27 05:08:22;;;;;;;7.53;6.82;;;23.80;99.90;;;;;;5079241;28;20029;-49
2022/06/27 05:10:47;;;;;;;8.30;7.13;;;24.00;99.90;;;;;;5070612;28;20040;-50
2022/06/27 05:13:14;;;;;;;9.23;6.97;;;;;;;;;;5037409;28;20125;-49
2022/06/27 05:15:40;;;;;;;9.23;8.00;;;24.00;99.90;;;;;;5070507;28;20040;-50
2022/06/27 05:18:06;;;;;;;9.32;7.43;;;24.10;99.90;;;;;;5070900;28;20074;-49
2022/06/27 05:20:32;;;;;;;9.63;8.50;;;24.20;99.90;;;;;;5070753;28;20514;-49
2022/06/27 05:23:01;;;;;;;10.73;6.90;;;24.20;99.90;;;;;;5071571;28;20472;-47
2022/06/27 05:25:27;;;;;;;13.05;7.65;;;24.30;99.90;;;;;;5086324;28;20043;-49
2022/06/27 05:27:54;;;;;;;10.18;8.07;;;24.50;99.90;;;;;;5086061;28;20450;-50
2022/06/27 05:30:20;;;;;;;11.90;8.00;;;24.70;99.90;;;;;;5082813;28;20047;-50
2022/06/27 05:32:46;;;;;;;8.77;7.82;;;24.80;99.90;;;;;;5083953;28;20380;-50
2022/06/27 05:35:12;;;;;;;12.23;7.63;;;24.90;99.90;;;;;;5084066;28;20068;-50
2022/06/27 05:37:39;;;;;;;11.35;7.50;;;25.00;99.90;;;;;;5088774;28;20056;-49
2022/06/27 05:40:07;;;;;;;11.00;8.20;;;24.90;99.90;;;;;;5094452;28;20032;-56
2022/06/27 05:42:34;;;;;;;8.65;6.82;;;25.10;99.90;;;;;;5096199;28;20028;-51
2022/06/27 05:45:01;;;;;;;7.60;6.78;;;25.30;99.90;;;;;;5096279;28;20032;-51
2022/06/27 05:47:28;;;;;;;9.70;7.32;;;25.30;99.90;;;;;;5092711;28;20024;-52
2022/06/27 05:49:55;;;;;;;8.88;6.82;;;;;;;;;;5083866;28;20036;-51
2022/06/27 05:52:22;;;;;;;12.02;7.70;;;25.40;99.90;;;;;;5090588;28;20039;-51
2022/06/27 05:54:49;;;;;;;9.60;6.95;;;25.40;99.90;;;;;;5080565;28;20067;-52
2022/06/27 05:57:15;;;;;;;9.35;6.85;;;25.50;99.90;;;;;;5076127;28;20020;-51
2022/06/27 05:59:41;;;;;;;8.82;6.10;;;25.80;99.90;;;;;;5075986;28;20052;-51
2022/06/27 06:02:07;;;;;;;8.23;6.30;;;25.80;99.90;;;;;;5076132;28;20059;-51
2022/06/27 06:04:35;;;;;;;8.77;6.22;;;25.70;99.90;;;;;;5076132;28;20060;-51
2022/06/27 06:07:01;;;;;;;9.40;5.78;;;;;;;;;;5075942;28;20040;-51
2022/06/27 06:09:27;;;;;;;7.18;6.40;;;26.10;99.90;;;;;;5076156;28;20051;-51
2022/06/27 06:11:54;;;;;;;8.32;6.40;;;26.30;99.90;;;;;;5075686;28;20530;-51
2022/06/27 06:14:21;;;;;;;8.95;5.90;;;;;;;;;;5075106;28;20036;-50
2022/06/27 06:16:49;;;;;;;7.10;6.28;;;;;;;;;;5082068;28;20403;-49
2022/06/27 06:19:16;;;;;;;8.88;6.75;;;26.50;99.90;;;;;;5080054;28;20028;-49
2022/06/27 06:21:43;;;;;;;11.43;6.90;;;;;;;;;;5075201;28;20788;-51
2022/06/27 06:24:09;;;;;;;8.93;6.55;;;26.90;99.90;;;;;;5073423;28;20058;-49
2022/06/27 06:26:35;;;;;;;8.15;5.47;;;26.90;99.90;;;;;;5079842;28;20037;-45
2022/06/27 06:29:11;;;;;;;6.20;5.30;;;27.00;99.90;;;;;;5081587;28;20032;-50
2022/06/27 06:31:40;;;;;;;5.57;4.90;;;27.10;99.90;;;;;;5064369;28;20048;-51
2022/06/27 06:34:07;;;;;;;6.97;5.50;;;;;;;;;;5084659;28;20089;-50
2022/06/27 06:36:35;;;;;;;15.27;6.72;;;;;;;;;;5085057;28;20021;-52
2022/06/27 06:39:02;;;;;;;7.63;5.32;;;27.40;99.90;;;;;;5082372;28;20104;-51
2022/06/27 06:41:28;;;;;;;15.05;6.55;;;27.70;99.90;;;;;;5086565;28;20040;-51
2022/06/27 06:43:54;;;;;;;5.80;5.07;;;27.80;99.90;;;;;;5097679;28;20499;-51
2022/06/27 06:46:21;;;;;;;6.07;4.80;;;28.00;99.90;;;;;;5086358;28;20081;-51
2022/06/27 06:48:47;;;;;;;6.25;4.53;;;27.90;99.90;;;;;;5081091;28;20056;-51
2022/06/27 06:51:16;;;;;;;11.30;5.03;;;28.00;99.90;;;;;;5066265;28;20075;-51
2022/06/27 06:53:42;;;;;;;6.55;4.60;;;;;;;;;;5081486;28;20036;-50
2022/06/27 06:56:09;;;;;;;6.95;4.10;;;28.20;99.90;;;;;;5099782;28;20036;-51
2022/06/27 06:58:35;;;;;;;9.48;5.03;;;;;;;;;;5084993;28;20032;-51
2022/06/27 07:01:02;;;;;;;6.63;4.95;;;28.60;99.90;;;;;;5083126;28;20428;-51
2022/06/27 07:03:29;;;;;;;5.38;4.88;;;;;;;;;;5084744;28;20034;-51
2022/06/27 07:05:56;;;;;;;5.93;4.85;;;28.80;99.90;;;;;;5077434;28;20040;-50
2022/06/27 07:08:24;;;;;;;7.43;4.10;;;;;;;;;;5083914;28;20036;-50
2022/06/27 07:25:25;;;;;;;7.38;4.25;;;;;;;;;;5137158;27;20415;-49
2022/06/27 07:27:51;;;;;;;7.20;4.80;;;;;;;;;;5130564;27;20023;-51
2022/06/27 07:30:19;;;;;;;6.05;4.47;;;30.10;99.90;;;;;;5131299;27;20474;-49
2022/06/27 07:32:45;;;;;;;4.13;3.08;;;30.10;99.90;;;;;;5129561;28;20035;-49
2022/06/27 07:35:13;;;;;;;10.88;4.30;;;30.20;99.90;;;;;;5132095;27;20039;-49
2022/06/27 07:37:45;;;;;;;5.68;3.45;;;30.50;99.90;;;;;;5142375;27;20036;-49
2022/06/27 07:40:11;;;;;;;6.20;3.58;;;30.50;99.90;;;;;;5111666;28;20039;-52
2022/06/27 07:42:38;;;;;;;5.15;3.78;;;30.40;99.90;;;;;;5108988;28;20024;-54
2022/06/27 07:45:05;;;;;;;6.10;3.00;;;30.50;99.90;;;;;;5089238;28;20597;-50
2022/06/27 07:47:31;;;;;;;5.93;3.47;;;30.60;99.90;;;;;;5077953;28;20037;-49
2022/06/27 07:49:57;;;;;;;7.32;3.78;;;;;;;;;;5053856;28;20054;-49
2022/06/27 07:52:24;;;;;;;4.88;3.00;;;;;;;;;;5107566;28;20051;-49
2022/06/27 07:54:51;;;;;;;5.03;2.90;;;30.70;99.90;;;;;;5107206;28;20043;-51
2022/06/27 07:57:17;;;;;;;3.90;2.00;;;30.60;99.90;;;;;;5106633;28;20446;-50
2022/06/27 07:59:44;;;;;;;6.80;2.70;;;30.70;99.90;;;;;;5109381;28;20034;-51
2022/06/27 08:02:09;;;;;;;4.90;2.70;;;31.00;99.90;;;;;;5107919;28;20036;-53
2022/06/27 08:04:37;;;;;;;3.20;2.75;;;30.90;99.90;;;;;;5107000;28;20114;-50
2022/06/27 08:07:04;;;;;;;4.80;2.42;;;;;;;;;;5106239;28;20103;-50
2022/06/27 08:09:30;;;;;;;4.80;2.28;;;;;;;;;;5108497;28;20426;-56
2022/06/27 08:11:56;;;;;;;3.85;2.90;;;;;;;;;;5108648;28;20118;-50
2022/06/27 08:14:22;;;;;;;4.32;2.80;;;;;;;;;;5128687;27;20130;-53
2022/06/27 08:16:51;;;;;;;3.88;2.13;;;;;;;;;;5133526;27;20039;-52
2022/06/27 08:19:18;;;;;;;6.00;1.88;;;;;;;;;;5132803;27;20023;-51
2022/06/27 08:21:45;;;;;;;2.00;1.27;;;;;;;;;;5129758;27;20063;-56
2022/06/27 08:24:16;;;;;;;4.90;1.80;;;;;;;;;;5137457;27;20505;-51
2022/06/27 08:26:44;;;;;;;3.70;1.83;;;;;;;;;;5118924;27;20031;-49
2022/06/27 08:29:10;;;;;;;3.42;1.60;;;;;;;;;;5118877;27;20470;-45
2022/06/27 08:31:39;;;;;;;2.67;1.73;;;;;;;;;;5123109;27;20023;-46
2022/06/27 08:34:06;;;;;;;3.67;1.60;;;;;;;;;;5122886;27;20036;-44
2022/06/27 08:36:33;;;;;;;3.35;1.40;;;;;;;;;;5116158;27;20141;-50
2022/06/27 08:38:59;;;;;;;1.98;1.30;;;;;;;;;;5117244;27;20042;-52
2022/06/27 08:41:26;;;;;;;1.70;1.20;;;;;;;;;;5098914;27;20047;-46
2022/06/27 08:43:58;;;;;;;2.72;1.45;;;;;;;;;;5117286;27;20398;-45
2022/06/27 08:46:24;;;;;;;2.35;1.30;;;;;;;;;;5119123;27;20027;-52
2022/06/27 08:48:50;;;;;;;2.35;1.17;;;32.60;97.10;;;;;;5115503;27;20046;-46
2022/06/27 08:51:18;;;;;;;3.28;1.00;;;32.60;97.20;;;;;;5114842;27;20064;-50
2022/06/27 08:53:44;;;;;;;3.50;1.50;;;32.50;96.40;;;;;;5118045;27;20069;-48
2022/06/27 08:56:13;;;;;;;3.55;1.20;;;32.80;97.40;;;;;;5115100;27;20143;-50
2022/06/27 08:58:40;;;;;;;5.55;1.70;;;33.00;97.10;;;;;;5114676;27;20390;-50
2022/06/27 09:01:07;;;;;;;4.90;1.50;;;33.10;96.00;;;;;;5057513;28;20570;-47
2022/06/27 09:03:34;;;;;;;1.67;1.10;;;32.70;95.20;;;;;;5118621;27;20038;-55
2022/06/27 09:06:06;;;;;;;4.75;2.13;;;32.90;95.40;;;;;;5115917;27;20101;-51
2022/06/27 09:08:36;;;;;;;2.42;1.60;;;33.00;95.40;;;;;;5091212;28;20032;-52
2022/06/27 09:11:03;;;;;;;8.20;3.97;;;33.10;95.60;;;;;;5117486;27;20027;-52
2022/06/27 09:13:30;;;;;;;8.25;2.45;;;33.10;96.20;;;;;;5113340;27;20031;-54
2022/06/27 09:15:59;;;;;;;11.32;3.22;;;33.00;95.60;;;;;;5113396;27;20027;-54
2022/06/27 09:18:27;;;;;;;1.83;1.40;;;33.30;96.20;;;;;;5118175;27;20023;-52
2022/06/27 09:21:11;;;;;;;2.55;1.88;;;33.20;94.80;;;;;;5115486;27;20035;-52
2022/06/27 09:23:58;;;;;;;3.05;1.63;;;32.80;95.40;;;;;;5113500;28;20055;-51
2022/06/27 09:26:35;;;;;;;3.60;1.58;;;33.00;94.80;;;;;;5092190;27;20039;-48
2022/06/27 09:29:01;;;;;;;5.18;2.05;;;33.10;95.70;;;;;;5114524;27;20031;-56
2022/06/27 09:31:28;;;;;;;3.22;1.58;;;33.30;96.00;;;;;;5116629;27;20026;-51
2022/06/27 09:34:02;;;;;;;4.13;1.98;;;33.50;95.80;;;;;;5115425;27;20050;-50
2022/06/27 09:36:30;;;;;;;3.15;2.10;;;33.50;96.70;;;;;;5113585;27;20020;-55
2022/06/27 09:38:57;;;;;;;2.80;1.88;;;33.60;96.80;;;;;;5115642;27;20067;-52
2022/06/27 09:41:26;;;;;;;8.55;1.58;;;33.30;95.80;;;;;;5115957;27;20377;-58
2022/06/27 09:43:56;;;;;;;3.15;1.92;;;33.60;95.70;;;;;;5114238;27;20126;-46
2022/06/27 09:46:25;;;;;;;4.95;1.90;;;33.80;95.80;;;;;;5113616;27;20035;-51
2022/06/27 09:48:52;;;;;;;3.90;1.90;;;33.80;95.70;;;;;;5112444;27;20484;-55
2022/06/27 09:51:18;;;;;;;2.70;2.20;;;34.00;95.90;;;;;;5113630;27;20038;-51
2022/06/27 09:53:44;;;;;;;6.47;2.22;;;33.90;96.00;;;;;;5113239;28;20039;-55
2022/06/27 09:56:13;;;;;;;6.00;2.15;;;33.90;95.70;;;;;;5113646;27;20479;-51
2022/06/27 09:58:40;;;;;;;5.18;1.90;;;34.20;95.70;;;;;;5112006;28;20441;-56
2022/06/27 10:01:06;;;;;;;3.47;1.75;;;34.30;95.10;;;;;;5116094;27;20409;-50
2022/06/27 10:03:35;;;;;;;4.07;1.70;;;34.10;95.00;;;;;;5115471;27;20028;-52
2022/06/27 10:06:01;;;;;;;2.38;1.88;;;;;;;;;;5113799;27;20118;-56
2022/06/27 10:08:27;;;;;;;2.60;1.67;;;33.00;95.20;;;;;;5118739;27;20027;-53
2022/06/27 10:11:02;;;;;;;3.22;1.90;;;33.10;95.10;;;;;;5115137;27;20031;-58
2022/06/27 10:13:29;;;;;;;2.00;1.63;;;33.20;95.50;;;;;;5113926;27;20505;-51
2022/06/27 10:15:58;;;;;;;2.35;1.73;;;33.40;95.20;;;;;;5112045;27;20523;-53
2022/06/27 10:18:24;;;;;;;3.97;2.35;;;33.90;94.30;;;;;;5092888;28;20039;-53
2022/06/27 10:20:52;;;;;;;3.33;1.85;;;33.80;93.80;;;;;;5110343;28;20026;-50
2022/06/27 10:23:28;;;;;;;2.95;2.00;;;34.40;94.30;;;;;;5111211;28;20804;-51
2022/06/27 10:25:56;;;;;;;5.30;1.90;;;34.30;93.60;;;;;;5112912;27;20039;-55
2022/06/27 10:28:22;;;;;;;5.70;1.83;;;33.80;93.00;;;;;;5112879;27;20043;-51
2022/06/27 10:30:56;;;;;;;7.25;2.38;;;34.50;93.10;;;;;;5114302;27;20066;-52
2022/06/27 10:33:25;;;;;;;5.95;2.17;;;34.50;93.50;;;;;;5109898;27;20043;-51
2022/06/27 10:38:26;;;;;;;;;;;34.20;93.00;;;;;;5118145;27;20043;-46
2022/06/27 10:40:54;;;;;;;5.07;1.88;;;34.40;93.00;;;;;;5117886;27;19927;-54
2022/06/27 10:43:43;;;;;;;3.45;1.70;;;34.50;92.50;;;;;;5077498;28;20032;-51
2022/06/27 10:46:09;;;;;;;3.67;2.05;;;34.40;91.80;;;;;;5095104;28;20044;-51
2022/06/27 10:48:37;;;;;;;6.45;2.22;;;34.90;92.50;;;;;;5117107;27;20118;-49
2022/06/27 10:51:22;;;;;;;3.70;1.85;;;35.30;92.50;;;;;;5116938;27;20492;-48
2022/06/27 10:53:49;;;;;;;2.88;1.83;;;34.90;90.90;;;;;;5111732;28;20039;-51
2022/06/27 10:56:35;;;;;;;6.13;1.90;;;35.30;91.80;;;;;;5115244;27;20031;-48
2022/06/27 10:59:03;;;;;;;6.32;2.42;;;35.60;91.60;;;;;;5110641;27;20462;-58
2022/06/27 11:01:30;;;;;;;6.18;4.20;;;35.90;92.30;;;;;;5076895;28;20110;-55
2022/06/27 11:03:56;;;;;;;7.30;4.75;;;36.20;91.80;;;;;;5109887;28;20026;-47
2022/06/27 11:06:23;;;;;;;7.22;2.70;;;36.20;90.70;;;;;;5114299;28;20028;-50
2022/06/27 11:08:54;;;;;;;6.63;4.45;;;35.90;90.40;;;;;;5112420;28;20031;-49
2022/06/27 11:11:22;;;;;;;7.55;5.00;;;35.70;90.60;;;;;;5108788;28;20494;-48
2022/06/27 11:13:53;;;;;;;4.32;2.83;;;35.50;90.40;;;;;;5113489;28;20087;-48
2022/06/27 11:16:20;;;;;;;18.60;12.68;;;35.50;90.40;;;;;;5120389;28;20049;-50
2022/06/27 11:18:51;;;;;;;7.25;2.67;;;36.00;91.00;;;;;;5117997;28;20031;-49
2022/06/27 11:21:20;;;;;;;5.53;3.63;;;36.20;90.60;;;;;;5111343;27;20044;-47
2022/06/27 11:23:53;;;;;;;2.72;2.00;;;36.00;89.20;;;;;;5111478;28;20525;-50
2022/06/27 11:26:21;;;;;;;5.43;3.10;;;36.20;89.50;;;;;;5116887;28;20032;-50
2022/06/27 11:34:15;;;;;;;7.60;2.88;;;36.40;88.70;;;;;;5115660;28;20062;-48
2022/06/27 11:36:42;;;;;;;4.38;2.00;;;36.00;87.90;;;;;;5116532;28;20027;-47
2022/06/27 11:39:08;;;;;;;11.57;3.83;;;36.40;89.00;;;;;;5113023;28;20442;-49
2022/06/27 11:41:39;;;;;;;8.25;3.28;;;36.30;88.00;;;;;;5113831;28;20031;-48
2022/06/27 11:44:07;;;;;;;5.50;2.40;;;36.60;87.80;;;;;;5112461;28;20074;-47
2022/06/27 11:46:45;;;;;;;4.82;2.17;;;36.60;87.50;;;;;;5113148;28;20110;-48
2022/06/27 11:49:16;;;;;;;5.32;2.35;;;36.30;87.60;;;;;;5113203;28;20038;-47
2022/06/27 11:51:44;;;;;;;10.80;5.97;;;36.60;88.00;;;;;;5115703;28;20031;-47
2022/06/27 11:54:20;;;;;;;6.93;3.38;;;37.10;88.60;;;;;;5111915;28;20039;-49
2022/06/27 11:56:51;;;;;;;6.00;4.07;;;;;;;;;;5112851;28;20103;-51
2022/06/27 11:59:18;;;;;;;2.10;1.65;;;35.60;87.20;;;;;;5127343;27;20424;-49
2022/06/27 12:02:03;;;;;;;2.88;1.70;;;35.50;87.00;;;;;;5118131;27;20032;-45
2022/06/27 12:04:33;;;;;;;3.13;2.17;;;34.70;87.20;;;;;;5112768;28;20024;-50
2022/06/27 12:07:07;;;;;;;2.08;1.88;;;35.60;88.60;;;;;;5120223;27;20079;-48
2022/06/27 12:09:47;;;;;;;4.68;2.05;;;;;;;;;;5116382;27;20027;-51
2022/06/27 12:12:18;;;;;;;4.25;2.15;;;36.30;92.60;;;;;;5114623;28;20067;-52
2022/06/27 12:14:45;;;;;;;;;;;36.30;86.40;;;;;;5096312;28;20071;-52
2022/06/27 12:17:11;;;;;;;3.05;1.90;;;36.90;87.70;;;;;;5117579;27;19972;-52
2022/06/27 12:19:37;;;;;;;8.00;2.33;;;;;;;;;;5119802;27;20027;-48
2022/06/27 12:22:03;;;;;;;6.25;2.28;;;36.90;85.00;;;;;;5098319;27;20040;-51
2022/06/27 12:24:30;;;;;;;5.35;1.70;;;36.80;85.20;;;;;;5120504;27;20051;-49
2022/06/27 12:26:56;;;;;;;3.95;1.63;;;36.50;85.10;;;;;;5098384;27;20075;-51
2022/06/27 12:29:22;;;;;;;5.20;1.63;;;36.60;84.60;;;;;;5115886;27;20115;-48
2022/06/27 12:31:49;;;;;;;4.55;1.75;;;36.70;84.40;;;;;;5118477;27;20036;-51
2022/06/27 12:34:14;;;;;;;2.95;1.60;;;36.90;84.40;;;;;;5114846;28;20035;-48
2022/06/27 12:36:40;;;;;;;3.72;1.70;;;37.00;84.70;;;;;;5113349;27;20036;-47
2022/06/27 12:39:07;;;;;;;4.00;1.67;;;37.10;84.60;;;;;;5117161;27;20032;-51
2022/06/27 12:41:35;;;;;;;6.30;2.08;;;37.10;85.40;;;;;;5090595;28;20043;-49
2022/06/27 12:44:01;;;;;;;5.07;1.90;;;37.20;84.90;;;;;;5116212;27;20031;-52
2022/06/27 12:46:27;;;;;;;3.85;1.77;;;36.80;84.30;;;;;;5115691;27;20144;-51
2022/06/27 12:48:55;;;;;;;3.25;2.08;;;36.70;83.80;;;;;;5103683;28;20116;-51
2022/06/27 12:51:25;;;;;;;3.55;2.38;;;36.50;83.70;;;;;;5116542;27;20363;-52
2022/06/27 12:53:53;;;;;;;4.80;1.90;;;36.90;85.30;;;;;;5114978;27;20040;-49
2022/06/27 12:56:19;;;;;;;8.82;1.70;;;37.00;83.00;;;;;;5114485;27;20023;-49
2022/06/27 12:58:45;;;;;;;3.83;1.70;;;36.70;84.00;;;;;;5114786;27;20383;-49
2022/06/27 13:01:11;;;;;;;1.88;1.33;;;36.60;83.50;;;;;;5115857;27;20038;-49
2022/06/27 13:03:37;;;;;;;3.05;1.42;;;36.50;85.10;;;;;;5100819;28;20101;-49
2022/06/27 13:06:03;;;;;;;2.95;1.92;;;36.70;83.70;;;;;;5115528;28;20035;-51
2022/06/27 13:08:29;;;;;;;3.40;1.30;;;36.40;83.60;;;;;;5113035;27;20019;-47
2022/06/27 13:10:55;;;;;;;4.97;1.90;;;36.40;84.00;;;;;;5113391;27;20095;-51
2022/06/27 13:13:21;;;;;;;3.10;1.80;;;36.70;85.60;;;;;;5114487;28;20085;-62
2022/06/27 13:15:47;;;;;;;6.07;1.85;;;37.10;84.80;;;;;;5115628;27;20093;-51
2022/06/27 13:18:13;;;;;;;6.40;1.70;;;37.20;83.80;;;;;;5114135;27;20044;-49
2022/06/27 13:20:39;;;;;;;2.90;1.85;;;36.00;83.20;;;;;;5114269;27;20070;-52
2022/06/27 13:23:05;;;;;;;4.13;1.35;;;36.50;85.10;;;;;;5116806;27;20443;-49
2022/06/27 13:25:31;;;;;;;4.38;1.55;;;36.00;83.30;;;;;;5114390;27;20043;-49